sensor_id;sensor_type;location;lat;lon;timestamp;P1;durP1;ratioP1;P2;durP2;ratioP2
37383;SDS011;23258;49.718;11.082;2023-03-13T00:02:25;3.33;;;2.45;;
37383;SDS011;23258;49.718;11.082;2023-03-13T00:04:54;5.75;;;2.28;;
37383;SDS011;23258;49.718;11.082;2023-03-13T00:07:24;2.50;;;1.35;;
37383;SDS011;23258;49.718;11.082;2023-03-13T00:09:53;4.75;;;2.17;;
37383;SDS011;23258;49.718;11.082;2023-03-13T00:12:23;3.65;;;1.95;;
37383;SDS011;23258;49.718;11.082;2023-03-13T00:14:53;4.85;;;2.10;;
37383;SDS011;23258;49.718;11.082;2023-03-13T00:17:25;4.13;;;2.38;;
37383;SDS011;23258;49.718;11.082;2023-03-13T00:19:54;2.58;;;1.85;;
37383;SDS011;23258;49.718;11.082;2023-03-13T00:22:24;4.03;;;2.05;;
37383;SDS011;23258;49.718;11.082;2023-03-13T00:24:53;3.55;;;2.47;;
37383;SDS011;23258;49.718;11.082;2023-03-13T00:27:24;6.22;;;2.55;;
37383;SDS011;23258;49.718;11.082;2023-03-13T00:29:54;3.80;;;2.03;;
37383;SDS011;23258;49.718;11.082;2023-03-13T00:32:26;3.35;;;2.20;;
37383;SDS011;23258;49.718;11.082;2023-03-13T00:34:56;2.20;;;1.98;;
37383;SDS011;23258;49.718;11.082;2023-03-13T00:37:25;3.22;;;2.25;;
37383;SDS011;23258;49.718;11.082;2023-03-13T00:39:55;1.73;;;1.63;;
37383;SDS011;23258;49.718;11.082;2023-03-13T00:42:24;3.85;;;2.03;;
37383;SDS011;23258;49.718;11.082;2023-03-13T00:44:54;2.25;;;1.88;;
37383;SDS011;23258;49.718;11.082;2023-03-13T00:47:26;3.38;;;2.00;;
37383;SDS011;23258;49.718;11.082;2023-03-13T00:49:55;4.75;;;1.20;;
37383;SDS011;23258;49.718;11.082;2023-03-13T00:52:25;2.58;;;1.77;;
37383;SDS011;23258;49.718;11.082;2023-03-13T00:54:55;3.58;;;2.03;;
37383;SDS011;23258;49.718;11.082;2023-03-13T00:57:24;1.52;;;1.45;;
37383;SDS011;23258;49.718;11.082;2023-03-13T00:59:54;3.30;;;2.03;;
37383;SDS011;23258;49.718;11.082;2023-03-13T01:02:26;1.95;;;1.52;;
37383;SDS011;23258;49.718;11.082;2023-03-13T01:04:55;6.53;;;1.80;;
37383;SDS011;23258;49.718;11.082;2023-03-13T01:07:25;1.83;;;1.70;;
37383;SDS011;23258;49.718;11.082;2023-03-13T01:09:55;3.38;;;1.77;;
37383;SDS011;23258;49.718;11.082;2023-03-13T01:12:24;2.13;;;1.92;;
37383;SDS011;23258;49.718;11.082;2023-03-13T01:14:55;3.45;;;1.73;;
37383;SDS011;23258;49.718;11.082;2023-03-13T01:17:27;4.07;;;2.20;;
37383;SDS011;23258;49.718;11.082;2023-03-13T01:19:57;2.88;;;1.92;;
37383;SDS011;23258;49.718;11.082;2023-03-13T01:22:27;2.70;;;1.80;;
37383;SDS011;23258;49.718;11.082;2023-03-13T01:24:58;4.70;;;1.65;;
37383;SDS011;23258;49.718;11.082;2023-03-13T01:27:27;2.78;;;1.48;;
37383;SDS011;23258;49.718;11.082;2023-03-13T01:29:57;3.25;;;1.10;;
37383;SDS011;23258;49.718;11.082;2023-03-13T01:32:29;2.35;;;1.63;;
37383;SDS011;23258;49.718;11.082;2023-03-13T01:35:01;4.45;;;1.92;;
37383;SDS011;23258;49.718;11.082;2023-03-13T01:37:31;5.45;;;2.15;;
37383;SDS011;23258;49.718;11.082;2023-03-13T01:40:02;3.72;;;1.90;;
37383;SDS011;23258;49.718;11.082;2023-03-13T01:48:04;2.83;;;1.83;;
37383;SDS011;23258;49.718;11.082;2023-03-13T01:50:45;2.45;;;1.27;;
37383;SDS011;23258;49.718;11.082;2023-03-13T01:53:22;3.47;;;1.98;;
37383;SDS011;23258;49.718;11.082;2023-03-13T01:55:53;2.53;;;1.90;;
37383;SDS011;23258;49.718;11.082;2023-03-13T01:58:23;5.60;;;2.20;;
37383;SDS011;23258;49.718;11.082;2023-03-13T02:00:53;4.65;;;1.80;;
37383;SDS011;23258;49.718;11.082;2023-03-13T02:03:25;3.42;;;2.28;;
37383;SDS011;23258;49.718;11.082;2023-03-13T02:05:58;3.47;;;2.00;;
37383;SDS011;23258;49.718;11.082;2023-03-13T02:08:29;2.58;;;1.73;;
37383;SDS011;23258;49.718;11.082;2023-03-13T02:11:03;4.28;;;2.35;;
37383;SDS011;23258;49.718;11.082;2023-03-13T02:13:36;5.55;;;1.77;;
37383;SDS011;23258;49.718;11.082;2023-03-13T02:16:05;3.95;;;1.90;;
37383;SDS011;23258;49.718;11.082;2023-03-13T02:18:38;1.88;;;1.67;;
37383;SDS011;23258;49.718;11.082;2023-03-13T02:21:09;5.53;;;2.03;;
37383;SDS011;23258;49.718;11.082;2023-03-13T02:23:41;3.47;;;1.95;;
37383;SDS011;23258;49.718;11.082;2023-03-13T02:26:16;2.00;;;1.50;;
37383;SDS011;23258;49.718;11.082;2023-03-13T02:28:46;3.13;;;1.50;;
37383;SDS011;23258;49.718;11.082;2023-03-13T02:31:17;3.53;;;1.40;;
37383;SDS011;23258;49.718;11.082;2023-03-13T02:33:46;4.40;;;1.50;;
37383;SDS011;23258;49.718;11.082;2023-03-13T02:36:18;3.13;;;1.52;;
37383;SDS011;23258;49.718;11.082;2023-03-13T02:38:50;2.35;;;1.58;;
37383;SDS011;23258;49.718;11.082;2023-03-13T02:41:25;2.22;;;1.70;;
37383;SDS011;23258;49.718;11.082;2023-03-13T02:43:57;1.90;;;1.80;;
37383;SDS011;23258;49.718;11.082;2023-03-13T02:46:27;5.32;;;1.98;;
37383;SDS011;23258;49.718;11.082;2023-03-13T02:48:57;4.82;;;1.73;;
37383;SDS011;23258;49.718;11.082;2023-03-13T02:51:28;2.88;;;1.75;;
37383;SDS011;23258;49.718;11.082;2023-03-13T02:54:00;6.22;;;2.30;;
37383;SDS011;23258;49.718;11.082;2023-03-13T02:56:33;3.67;;;1.85;;
37383;SDS011;23258;49.718;11.082;2023-03-13T02:59:05;5.32;;;1.58;;
37383;SDS011;23258;49.718;11.082;2023-03-13T03:01:38;4.35;;;2.05;;
37383;SDS011;23258;49.718;11.082;2023-03-13T03:04:07;4.82;;;1.98;;
37383;SDS011;23258;49.718;11.082;2023-03-13T03:06:37;3.13;;;1.73;;
37383;SDS011;23258;49.718;11.082;2023-03-13T03:09:07;8.25;;;2.33;;
37383;SDS011;23258;49.718;11.082;2023-03-13T03:11:39;5.20;;;1.73;;
37383;SDS011;23258;49.718;11.082;2023-03-13T03:14:12;2.30;;;2.00;;
37383;SDS011;23258;49.718;11.082;2023-03-13T03:16:44;4.60;;;1.73;;
37383;SDS011;23258;49.718;11.082;2023-03-13T03:19:14;1.70;;;1.60;;
37383;SDS011;23258;49.718;11.082;2023-03-13T03:21:43;2.47;;;1.52;;
37383;SDS011;23258;49.718;11.082;2023-03-13T03:24:17;5.28;;;1.42;;
37383;SDS011;23258;49.718;11.082;2023-03-13T03:26:49;3.03;;;1.75;;
37383;SDS011;23258;49.718;11.082;2023-03-13T03:29:26;2.42;;;1.70;;
37383;SDS011;23258;49.718;11.082;2023-03-13T03:31:57;2.22;;;1.88;;
37383;SDS011;23258;49.718;11.082;2023-03-13T03:34:28;4.78;;;2.03;;
37383;SDS011;23258;49.718;11.082;2023-03-13T03:36:57;3.30;;;1.45;;
37383;SDS011;23258;49.718;11.082;2023-03-13T03:39:27;1.60;;;1.42;;
37383;SDS011;23258;49.718;11.082;2023-03-13T03:42:00;2.38;;;1.92;;
37383;SDS011;23258;49.718;11.082;2023-03-13T03:44:30;1.98;;;1.80;;
37383;SDS011;23258;49.718;11.082;2023-03-13T03:47:00;4.70;;;1.65;;
37383;SDS011;23258;49.718;11.082;2023-03-13T03:49:34;5.00;;;1.90;;
37383;SDS011;23258;49.718;11.082;2023-03-13T03:52:04;3.95;;;1.50;;
37383;SDS011;23258;49.718;11.082;2023-03-13T03:54:37;1.60;;;1.50;;
37383;SDS011;23258;49.718;11.082;2023-03-13T03:57:09;2.15;;;1.65;;
37383;SDS011;23258;49.718;11.082;2023-03-13T03:59:42;3.10;;;2.03;;
37383;SDS011;23258;49.718;11.082;2023-03-13T04:02:11;2.85;;;2.00;;
37383;SDS011;23258;49.718;11.082;2023-03-13T04:04:42;5.07;;;2.03;;
37383;SDS011;23258;49.718;11.082;2023-03-13T04:07:25;1.60;;;1.50;;
37383;SDS011;23258;49.718;11.082;2023-03-13T04:09:55;4.75;;;1.45;;
37383;SDS011;23258;49.718;11.082;2023-03-13T04:12:35;6.53;;;1.88;;
37383;SDS011;23258;49.718;11.082;2023-03-13T04:15:05;2.22;;;1.08;;
37383;SDS011;23258;49.718;11.082;2023-03-13T04:17:35;1.73;;;1.58;;
37383;SDS011;23258;49.718;11.082;2023-03-13T04:20:06;2.35;;;1.58;;
37383;SDS011;23258;49.718;11.082;2023-03-13T04:22:37;2.83;;;1.63;;
37383;SDS011;23258;49.718;11.082;2023-03-13T04:25:07;2.20;;;1.63;;
37383;SDS011;23258;49.718;11.082;2023-03-13T04:27:39;4.15;;;1.98;;
37383;SDS011;23258;49.718;11.082;2023-03-13T04:30:09;4.25;;;1.73;;
37383;SDS011;23258;49.718;11.082;2023-03-13T04:33:01;3.42;;;1.88;;
37383;SDS011;23258;49.718;11.082;2023-03-13T04:35:45;4.15;;;1.50;;
37383;SDS011;23258;49.718;11.082;2023-03-13T04:38:23;4.40;;;1.95;;
37383;SDS011;23258;49.718;11.082;2023-03-13T04:41:12;5.55;;;1.63;;
37383;SDS011;23258;49.718;11.082;2023-03-13T04:43:58;1.80;;;1.08;;
37383;SDS011;23258;49.718;11.082;2023-03-13T04:46:38;4.97;;;1.60;;
37383;SDS011;23258;49.718;11.082;2023-03-13T04:49:23;1.58;;;1.48;;
37383;SDS011;23258;49.718;11.082;2023-03-13T04:52:12;2.28;;;1.58;;
37383;SDS011;23258;49.718;11.082;2023-03-13T04:54:55;3.67;;;1.95;;
37383;SDS011;23258;49.718;11.082;2023-03-13T04:57:50;2.80;;;1.33;;
37383;SDS011;23258;49.718;11.082;2023-03-13T05:00:35;2.00;;;1.30;;
37383;SDS011;23258;49.718;11.082;2023-03-13T05:03:27;2.08;;;1.63;;
37383;SDS011;23258;49.718;11.082;2023-03-13T05:05:57;4.72;;;1.80;;
37383;SDS011;23258;49.718;11.082;2023-03-13T05:08:52;3.03;;;1.52;;
37383;SDS011;23258;49.718;11.082;2023-03-13T05:11:37;2.83;;;1.23;;
37383;SDS011;23258;49.718;11.082;2023-03-13T05:14:34;2.33;;;1.40;;
37383;SDS011;23258;49.718;11.082;2023-03-13T05:17:25;3.88;;;1.52;;
37383;SDS011;23258;49.718;11.082;2023-03-13T05:20:13;1.52;;;1.40;;
37383;SDS011;23258;49.718;11.082;2023-03-13T05:23:03;1.40;;;1.40;;
37383;SDS011;23258;49.718;11.082;2023-03-13T05:25:46;1.60;;;1.40;;
37383;SDS011;23258;49.718;11.082;2023-03-13T05:28:42;2.97;;;1.50;;
37383;SDS011;23258;49.718;11.082;2023-03-13T05:31:27;2.90;;;1.30;;
37383;SDS011;23258;49.718;11.082;2023-03-13T05:34:18;6.78;;;1.73;;
37383;SDS011;23258;49.718;11.082;2023-03-13T05:36:56;2.65;;;1.48;;
37383;SDS011;23258;49.718;11.082;2023-03-13T05:39:31;2.63;;;1.55;;
37383;SDS011;23258;49.718;11.082;2023-03-13T05:42:20;2.13;;;1.48;;
37383;SDS011;23258;49.718;11.082;2023-03-13T05:45:00;1.25;;;1.17;;
37383;SDS011;23258;49.718;11.082;2023-03-13T05:48:02;1.80;;;1.50;;
37383;SDS011;23258;49.718;11.082;2023-03-13T05:50:43;3.13;;;1.27;;
37383;SDS011;23258;49.718;11.082;2023-03-13T05:53:40;3.47;;;1.63;;
37383;SDS011;23258;49.718;11.082;2023-03-13T05:56:29;1.27;;;1.20;;
37383;SDS011;23258;49.718;11.082;2023-03-13T05:59:19;2.78;;;1.58;;
37383;SDS011;23258;49.718;11.082;2023-03-13T06:01:49;1.88;;;1.42;;
37383;SDS011;23258;49.718;11.082;2023-03-13T06:04:26;2.35;;;1.30;;
37383;SDS011;23258;49.718;11.082;2023-03-13T06:06:58;3.00;;;1.30;;
37383;SDS011;23258;49.718;11.082;2023-03-13T06:09:28;3.75;;;2.20;;
37383;SDS011;23258;49.718;11.082;2023-03-13T06:11:58;4.50;;;2.10;;
37383;SDS011;23258;49.718;11.082;2023-03-13T06:14:28;3.15;;;1.95;;
37383;SDS011;23258;49.718;11.082;2023-03-13T06:17:23;1.25;;;1.15;;
37383;SDS011;23258;49.718;11.082;2023-03-13T06:19:53;5.25;;;1.60;;
37383;SDS011;23258;49.718;11.082;2023-03-13T06:22:25;2.60;;;1.95;;
37383;SDS011;23258;49.718;11.082;2023-03-13T06:24:56;1.25;;;1.25;;
37383;SDS011;23258;49.718;11.082;2023-03-13T06:27:25;2.40;;;1.38;;
37383;SDS011;23258;49.718;11.082;2023-03-13T06:29:55;3.60;;;1.45;;
37383;SDS011;23258;49.718;11.082;2023-03-13T06:32:24;1.88;;;1.48;;
37383;SDS011;23258;49.718;11.082;2023-03-13T06:34:55;3.28;;;1.67;;
37383;SDS011;23258;49.718;11.082;2023-03-13T06:37:27;1.52;;;1.42;;
37383;SDS011;23258;49.718;11.082;2023-03-13T06:39:56;5.13;;;1.80;;
37383;SDS011;23258;49.718;11.082;2023-03-13T06:42:26;4.32;;;2.40;;
37383;SDS011;23258;49.718;11.082;2023-03-13T06:44:55;3.67;;;1.85;;
37383;SDS011;23258;49.718;11.082;2023-03-13T06:47:25;7.47;;;2.10;;
37383;SDS011;23258;49.718;11.082;2023-03-13T06:49:55;7.07;;;2.33;;
37383;SDS011;23258;49.718;11.082;2023-03-13T06:52:27;1.75;;;1.63;;
37383;SDS011;23258;49.718;11.082;2023-03-13T06:55:09;2.80;;;1.65;;
37383;SDS011;23258;49.718;11.082;2023-03-13T06:57:39;1.80;;;1.67;;
37383;SDS011;23258;49.718;11.082;2023-03-13T07:00:09;3.33;;;1.73;;
37383;SDS011;23258;49.718;11.082;2023-03-13T07:02:39;5.60;;;1.67;;
37383;SDS011;23258;49.718;11.082;2023-03-13T07:05:09;2.20;;;1.65;;
37383;SDS011;23258;49.718;11.082;2023-03-13T07:07:42;2.15;;;1.92;;
37383;SDS011;23258;49.718;11.082;2023-03-13T07:10:12;2.53;;;1.80;;
37383;SDS011;23258;49.718;11.082;2023-03-13T07:12:42;1.98;;;1.83;;
37383;SDS011;23258;49.718;11.082;2023-03-13T07:15:11;1.70;;;1.60;;
37383;SDS011;23258;49.718;11.082;2023-03-13T07:17:41;2.90;;;1.92;;
37383;SDS011;23258;49.718;11.082;2023-03-13T07:20:11;2.05;;;1.85;;
37383;SDS011;23258;49.718;11.082;2023-03-13T07:22:45;2.72;;;1.70;;
37383;SDS011;23258;49.718;11.082;2023-03-13T07:25:19;2.17;;;1.58;;
37383;SDS011;23258;49.718;11.082;2023-03-13T07:27:49;2.83;;;1.83;;
37383;SDS011;23258;49.718;11.082;2023-03-13T07:30:19;5.10;;;2.35;;
37383;SDS011;23258;49.718;11.082;2023-03-13T07:32:49;3.88;;;1.58;;
37383;SDS011;23258;49.718;11.082;2023-03-13T07:35:19;5.72;;;2.25;;
37383;SDS011;23258;49.718;11.082;2023-03-13T07:37:51;2.80;;;2.00;;
37383;SDS011;23258;49.718;11.082;2023-03-13T07:40:20;2.65;;;1.40;;
37383;SDS011;23258;49.718;11.082;2023-03-13T07:42:50;1.80;;;1.55;;
37383;SDS011;23258;49.718;11.082;2023-03-13T07:45:19;1.42;;;1.30;;
37383;SDS011;23258;49.718;11.082;2023-03-13T07:47:49;2.28;;;1.25;;
37383;SDS011;23258;49.718;11.082;2023-03-13T07:50:18;2.33;;;1.60;;
37383;SDS011;23258;49.718;11.082;2023-03-13T07:52:51;3.78;;;1.38;;
37383;SDS011;23258;49.718;11.082;2023-03-13T07:55:20;1.50;;;1.40;;
37383;SDS011;23258;49.718;11.082;2023-03-13T07:57:50;2.95;;;1.80;;
37383;SDS011;23258;49.718;11.082;2023-03-13T08:00:20;2.83;;;1.25;;
37383;SDS011;23258;49.718;11.082;2023-03-13T08:02:50;1.30;;;1.25;;
37383;SDS011;23258;49.718;11.082;2023-03-13T08:05:19;1.63;;;1.48;;
37383;SDS011;23258;49.718;11.082;2023-03-13T08:07:51;2.85;;;1.67;;
37383;SDS011;23258;49.718;11.082;2023-03-13T08:10:21;2.58;;;2.00;;
37383;SDS011;23258;49.718;11.082;2023-03-13T08:12:50;2.53;;;1.80;;
37383;SDS011;23258;49.718;11.082;2023-03-13T08:15:20;2.92;;;1.60;;
37383;SDS011;23258;49.718;11.082;2023-03-13T08:17:51;1.77;;;1.45;;
37383;SDS011;23258;49.718;11.082;2023-03-13T08:20:21;3.20;;;2.15;;
37383;SDS011;23258;49.718;11.082;2023-03-13T08:22:53;1.38;;;1.27;;
37383;SDS011;23258;49.718;11.082;2023-03-13T08:25:23;2.47;;;1.58;;
37383;SDS011;23258;49.718;11.082;2023-03-13T08:27:52;2.65;;;1.58;;
37383;SDS011;23258;49.718;11.082;2023-03-13T08:30:23;2.88;;;1.73;;
37383;SDS011;23258;49.718;11.082;2023-03-13T08:32:52;2.15;;;1.63;;
37383;SDS011;23258;49.718;11.082;2023-03-13T08:35:22;8.43;;;2.42;;
37383;SDS011;23258;49.718;11.082;2023-03-13T08:37:54;6.28;;;1.77;;
37383;SDS011;23258;49.718;11.082;2023-03-13T08:40:24;3.85;;;1.40;;
37383;SDS011;23258;49.718;11.082;2023-03-13T08:42:53;3.75;;;1.33;;
37383;SDS011;23258;49.718;11.082;2023-03-13T08:45:23;2.10;;;1.65;;
37383;SDS011;23258;49.718;11.082;2023-03-13T08:47:52;2.55;;;1.73;;
37383;SDS011;23258;49.718;11.082;2023-03-13T08:50:22;3.67;;;1.50;;
37383;SDS011;23258;49.718;11.082;2023-03-13T08:52:54;5.28;;;1.40;;
37383;SDS011;23258;49.718;11.082;2023-03-13T08:55:24;1.90;;;1.80;;
37383;SDS011;23258;49.718;11.082;2023-03-13T08:57:53;2.05;;;1.27;;
37383;SDS011;23258;49.718;11.082;2023-03-13T09:00:23;3.47;;;1.63;;
37383;SDS011;23258;49.718;11.082;2023-03-13T09:02:52;2.55;;;1.70;;
37383;SDS011;23258;49.718;11.082;2023-03-13T09:05:22;2.67;;;1.63;;
37383;SDS011;23258;49.718;11.082;2023-03-13T09:07:55;3.08;;;1.38;;
37383;SDS011;23258;49.718;11.082;2023-03-13T09:10:24;3.25;;;1.70;;
37383;SDS011;23258;49.718;11.082;2023-03-13T09:12:54;2.60;;;1.27;;
37383;SDS011;23258;49.718;11.082;2023-03-13T09:15:23;3.40;;;1.75;;
37383;SDS011;23258;49.718;11.082;2023-03-13T09:17:53;1.52;;;1.08;;
37383;SDS011;23258;49.718;11.082;2023-03-13T09:20:23;2.17;;;1.30;;
37383;SDS011;23258;49.718;11.082;2023-03-13T09:22:55;1.13;;;0.95;;
37383;SDS011;23258;49.718;11.082;2023-03-13T09:25:24;1.33;;;1.08;;
37383;SDS011;23258;49.718;11.082;2023-03-13T09:27:54;1.17;;;1.00;;
37383;SDS011;23258;49.718;11.082;2023-03-13T09:30:23;1.42;;;1.33;;
37383;SDS011;23258;49.718;11.082;2023-03-13T09:32:53;2.05;;;1.52;;
37383;SDS011;23258;49.718;11.082;2023-03-13T09:35:22;1.52;;;1.02;;
37383;SDS011;23258;49.718;11.082;2023-03-13T09:37:54;1.20;;;1.10;;
37383;SDS011;23258;49.718;11.082;2023-03-13T09:40:24;2.70;;;1.08;;
37383;SDS011;23258;49.718;11.082;2023-03-13T09:42:55;1.48;;;1.13;;
37383;SDS011;23258;49.718;11.082;2023-03-13T09:45:28;0.90;;;0.90;;
37383;SDS011;23258;49.718;11.082;2023-03-13T09:48:00;2.50;;;1.35;;
37383;SDS011;23258;49.718;11.082;2023-03-13T09:50:31;1.17;;;1.17;;
37383;SDS011;23258;49.718;11.082;2023-03-13T09:53:10;0.98;;;0.98;;
37383;SDS011;23258;49.718;11.082;2023-03-13T09:55:41;2.10;;;1.13;;
37383;SDS011;23258;49.718;11.082;2023-03-13T09:58:13;1.45;;;1.23;;
37383;SDS011;23258;49.718;11.082;2023-03-13T10:00:46;1.52;;;1.23;;
37383;SDS011;23258;49.718;11.082;2023-03-13T10:03:18;1.10;;;1.00;;
37383;SDS011;23258;49.718;11.082;2023-03-13T10:05:49;0.98;;;0.98;;
37383;SDS011;23258;49.718;11.082;2023-03-13T10:08:23;0.93;;;0.65;;
37383;SDS011;23258;49.718;11.082;2023-03-13T10:10:54;1.17;;;1.17;;
37383;SDS011;23258;49.718;11.082;2023-03-13T10:13:27;0.98;;;0.93;;
37383;SDS011;23258;49.718;11.082;2023-03-13T10:16:00;3.15;;;0.80;;
37383;SDS011;23258;49.718;11.082;2023-03-13T10:18:30;0.80;;;0.80;;
37383;SDS011;23258;49.718;11.082;2023-03-13T10:21:16;1.70;;;1.27;;
37383;SDS011;23258;49.718;11.082;2023-03-13T10:23:49;0.93;;;0.65;;
37383;SDS011;23258;49.718;11.082;2023-03-13T10:26:20;0.82;;;0.82;;
37383;SDS011;23258;49.718;11.082;2023-03-13T10:28:50;0.70;;;0.70;;
37383;SDS011;23258;49.718;11.082;2023-03-13T10:31:21;0.93;;;0.80;;
37383;SDS011;23258;49.718;11.082;2023-03-13T10:33:54;0.80;;;0.80;;
37383;SDS011;23258;49.718;11.082;2023-03-13T10:36:38;0.73;;;0.73;;
37383;SDS011;23258;49.718;11.082;2023-03-13T10:39:14;2.80;;;1.17;;
37383;SDS011;23258;49.718;11.082;2023-03-13T10:41:44;0.73;;;0.73;;
37383;SDS011;23258;49.718;11.082;2023-03-13T10:44:15;1.13;;;0.77;;
37383;SDS011;23258;49.718;11.082;2023-03-13T10:46:45;0.98;;;0.98;;
37383;SDS011;23258;49.718;11.082;2023-03-13T10:49:16;0.70;;;0.70;;
37383;SDS011;23258;49.718;11.082;2023-03-13T10:51:47;0.95;;;0.95;;
37383;SDS011;23258;49.718;11.082;2023-03-13T10:54:22;0.73;;;0.73;;
37383;SDS011;23258;49.718;11.082;2023-03-13T10:57:07;0.63;;;0.63;;
37383;SDS011;23258;49.718;11.082;2023-03-13T10:59:38;0.80;;;0.80;;
37383;SDS011;23258;49.718;11.082;2023-03-13T11:02:18;0.50;;;0.50;;
37383;SDS011;23258;49.718;11.082;2023-03-13T11:04:49;2.83;;;0.75;;
37383;SDS011;23258;49.718;11.082;2023-03-13T11:07:20;1.23;;;1.13;;
37383;SDS011;23258;49.718;11.082;2023-03-13T11:10:00;0.93;;;0.93;;
37383;SDS011;23258;49.718;11.082;2023-03-13T11:12:32;0.77;;;0.77;;
37383;SDS011;23258;49.718;11.082;2023-03-13T11:15:02;0.77;;;0.77;;
37383;SDS011;23258;49.718;11.082;2023-03-13T11:17:35;0.77;;;0.77;;
37383;SDS011;23258;49.718;11.082;2023-03-13T11:20:07;0.80;;;0.80;;
37383;SDS011;23258;49.718;11.082;2023-03-13T11:22:52;1.13;;;1.13;;
37383;SDS011;23258;49.718;11.082;2023-03-13T11:25:28;1.10;;;0.77;;
37383;SDS011;23258;49.718;11.082;2023-03-13T11:28:03;0.90;;;0.90;;
37383;SDS011;23258;49.718;11.082;2023-03-13T11:30:41;1.13;;;1.02;;
37383;SDS011;23258;49.718;11.082;2023-03-13T11:33:16;0.70;;;0.70;;
37383;SDS011;23258;49.718;11.082;2023-03-13T11:35:49;1.05;;;0.98;;
37383;SDS011;23258;49.718;11.082;2023-03-13T11:38:23;0.73;;;0.73;;
37383;SDS011;23258;49.718;11.082;2023-03-13T11:41:00;0.70;;;0.70;;
37383;SDS011;23258;49.718;11.082;2023-03-13T11:43:39;5.45;;;1.25;;
37383;SDS011;23258;49.718;11.082;2023-03-13T11:46:17;1.08;;;1.08;;
37383;SDS011;23258;49.718;11.082;2023-03-13T11:48:55;1.63;;;1.27;;
37383;SDS011;23258;49.718;11.082;2023-03-13T11:51:27;0.90;;;0.90;;
37383;SDS011;23258;49.718;11.082;2023-03-13T11:54:05;1.55;;;1.25;;
37383;SDS011;23258;49.718;11.082;2023-03-13T11:56:43;1.25;;;1.00;;
37383;SDS011;23258;49.718;11.082;2023-03-13T11:59:21;0.75;;;0.75;;
37383;SDS011;23258;49.718;11.082;2023-03-13T12:01:56;0.93;;;0.93;;
37383;SDS011;23258;49.718;11.082;2023-03-13T12:04:28;0.82;;;0.82;;
37383;SDS011;23258;49.718;11.082;2023-03-13T12:07:00;1.10;;;1.00;;
37383;SDS011;23258;49.718;11.082;2023-03-13T12:09:32;1.50;;;1.40;;
37383;SDS011;23258;49.718;11.082;2023-03-13T12:12:08;0.98;;;0.95;;
37383;SDS011;23258;49.718;11.082;2023-03-13T12:14:40;1.13;;;1.13;;
37383;SDS011;23258;49.718;11.082;2023-03-13T12:17:14;0.70;;;0.70;;
37383;SDS011;23258;49.718;11.082;2023-03-13T12:19:46;1.13;;;1.13;;
37383;SDS011;23258;49.718;11.082;2023-03-13T12:22:17;0.82;;;0.82;;
37383;SDS011;23258;49.718;11.082;2023-03-13T12:24:49;0.90;;;0.90;;
37383;SDS011;23258;49.718;11.082;2023-03-13T12:27:23;1.40;;;0.90;;
37383;SDS011;23258;49.718;11.082;2023-03-13T12:29:58;1.20;;;1.00;;
37383;SDS011;23258;49.718;11.082;2023-03-13T12:32:32;0.77;;;0.77;;
37383;SDS011;23258;49.718;11.082;2023-03-13T12:35:06;0.90;;;0.90;;
37383;SDS011;23258;49.718;11.082;2023-03-13T12:37:38;1.27;;;0.98;;
37383;SDS011;23258;49.718;11.082;2023-03-13T12:40:12;1.23;;;0.90;;
37383;SDS011;23258;49.718;11.082;2023-03-13T12:42:48;1.58;;;1.27;;
37383;SDS011;23258;49.718;11.082;2023-03-13T12:45:20;0.98;;;0.93;;
37383;SDS011;23258;49.718;11.082;2023-03-13T12:47:59;0.90;;;0.90;;
37383;SDS011;23258;49.718;11.082;2023-03-13T12:50:37;0.93;;;0.93;;
37383;SDS011;23258;49.718;11.082;2023-03-13T12:56:02;1.02;;;1.02;;
37383;SDS011;23258;49.718;11.082;2023-03-13T13:01:29;1.25;;;1.15;;
37383;SDS011;23258;49.718;11.082;2023-03-13T13:04:00;4.90;;;1.45;;
37383;SDS011;23258;49.718;11.082;2023-03-13T13:09:19;2.55;;;1.05;;
37383;SDS011;23258;49.718;11.082;2023-03-13T13:11:50;1.13;;;1.00;;
37383;SDS011;23258;49.718;11.082;2023-03-13T13:17:15;1.48;;;1.05;;
37383;SDS011;23258;49.718;11.082;2023-03-13T13:19:46;1.15;;;1.05;;
37383;SDS011;23258;49.718;11.082;2023-03-13T13:25:07;0.98;;;0.98;;
37383;SDS011;23258;49.718;11.082;2023-03-13T13:27:52;0.80;;;0.80;;
37383;SDS011;23258;49.718;11.082;2023-03-13T13:30:29;1.85;;;0.95;;
37383;SDS011;23258;49.718;11.082;2023-03-13T13:35:47;0.85;;;0.85;;
37383;SDS011;23258;49.718;11.082;2023-03-13T13:38:37;0.85;;;0.85;;
37383;SDS011;23258;49.718;11.082;2023-03-13T13:41:21;0.93;;;0.93;;
37383;SDS011;23258;49.718;11.082;2023-03-13T13:46:42;1.05;;;1.05;;
37383;SDS011;23258;49.718;11.082;2023-03-13T13:49:13;1.13;;;1.13;;
37383;SDS011;23258;49.718;11.082;2023-03-13T13:52:16;1.30;;;1.30;;
37383;SDS011;23258;49.718;11.082;2023-03-13T13:54:55;1.00;;;0.90;;
37383;SDS011;23258;49.718;11.082;2023-03-13T13:57:25;0.80;;;0.80;;
37383;SDS011;23258;49.718;11.082;2023-03-13T13:59:58;1.25;;;1.15;;
37383;SDS011;23258;49.718;11.082;2023-03-13T14:02:35;1.95;;;1.40;;
37383;SDS011;23258;49.718;11.082;2023-03-13T14:05:06;1.33;;;1.23;;
37383;SDS011;23258;49.718;11.082;2023-03-13T14:07:44;1.27;;;1.00;;
37383;SDS011;23258;49.718;11.082;2023-03-13T14:10:16;0.95;;;0.95;;
37383;SDS011;23258;49.718;11.082;2023-03-13T14:12:50;1.00;;;1.00;;
37383;SDS011;23258;49.718;11.082;2023-03-13T14:15:21;1.33;;;1.20;;
37383;SDS011;23258;49.718;11.082;2023-03-13T14:17:52;1.63;;;1.52;;
37383;SDS011;23258;49.718;11.082;2023-03-13T14:20:26;0.93;;;0.80;;
37383;SDS011;23258;49.718;11.082;2023-03-13T14:22:59;0.88;;;0.88;;
37383;SDS011;23258;49.718;11.082;2023-03-13T14:25:39;2.00;;;1.20;;
37383;SDS011;23258;49.718;11.082;2023-03-13T14:28:17;1.48;;;1.02;;
37383;SDS011;23258;49.718;11.082;2023-03-13T14:30:47;1.52;;;1.42;;
37383;SDS011;23258;49.718;11.082;2023-03-13T14:33:17;2.15;;;1.65;;
37383;SDS011;23258;49.718;11.082;2023-03-13T14:35:47;1.42;;;1.33;;
37383;SDS011;23258;49.718;11.082;2023-03-13T14:38:20;1.42;;;1.33;;
37383;SDS011;23258;49.718;11.082;2023-03-13T14:40:50;1.58;;;1.48;;
37383;SDS011;23258;49.718;11.082;2023-03-13T14:43:23;1.40;;;1.30;;
37383;SDS011;23258;49.718;11.082;2023-03-13T14:45:53;1.27;;;1.20;;
37383;SDS011;23258;49.718;11.082;2023-03-13T14:48:26;2.13;;;1.33;;
37383;SDS011;23258;49.718;11.082;2023-03-13T14:51:01;1.60;;;1.20;;
37383;SDS011;23258;49.718;11.082;2023-03-13T14:53:54;1.73;;;1.60;;
37383;SDS011;23258;49.718;11.082;2023-03-13T14:56:31;1.70;;;1.60;;
37383;SDS011;23258;49.718;11.082;2023-03-13T14:59:05;2.05;;;1.50;;
37383;SDS011;23258;49.718;11.082;2023-03-13T15:01:35;1.08;;;1.08;;
37383;SDS011;23258;49.718;11.082;2023-03-13T15:04:04;1.73;;;1.48;;
37383;SDS011;23258;49.718;11.082;2023-03-13T15:06:34;2.35;;;1.20;;
37383;SDS011;23258;49.718;11.082;2023-03-13T15:11:35;1.23;;;1.13;;
37383;SDS011;23258;49.718;11.082;2023-03-13T15:16:52;1.15;;;1.15;;
37383;SDS011;23258;49.718;11.082;2023-03-13T15:19:21;1.50;;;1.08;;
37383;SDS011;23258;49.718;11.082;2023-03-13T15:21:51;1.05;;;0.98;;
37383;SDS011;23258;49.718;11.082;2023-03-13T15:24:20;2.15;;;1.00;;
37383;SDS011;23258;49.718;11.082;2023-03-13T15:26:53;1.20;;;0.85;;
37383;SDS011;23258;49.718;11.082;2023-03-13T15:29:22;1.02;;;0.98;;
37383;SDS011;23258;49.718;11.082;2023-03-13T15:31:52;1.55;;;0.85;;
37383;SDS011;23258;49.718;11.082;2023-03-13T15:34:21;0.90;;;0.80;;
37383;SDS011;23258;49.718;11.082;2023-03-13T15:36:51;0.98;;;0.90;;
37383;SDS011;23258;49.718;11.082;2023-03-13T15:39:20;0.93;;;0.90;;
37383;SDS011;23258;49.718;11.082;2023-03-13T15:41:53;1.13;;;0.80;;